createdAt,value
2022-11-13T00:00:55.715Z,102232.34
2022-11-13T00:03:23.586Z,102234.22
2022-11-13T00:05:59.780Z,102224.56
2022-11-13T00:08:27.932Z,102231.50
2022-11-13T00:11:03.091Z,102230.66
2022-11-13T00:13:30.967Z,102229.81
2022-11-13T00:16:00.051Z,102226.06
2022-11-13T00:18:28.801Z,102227.94
2022-11-13T00:20:57.038Z,102220.81
2022-11-13T00:23:24.914Z,102220.81
2022-11-13T00:25:52.794Z,102215.56
2022-11-13T00:28:22.177Z,102216.19
2022-11-13T00:30:50.035Z,102210.09
2022-11-13T00:33:38.004Z,102203.81
2022-11-13T00:36:06.131Z,102202.97
2022-11-13T00:38:34.091Z,102200.25
2022-11-13T00:41:02.027Z,102202.78
2022-11-13T00:43:31.306Z,102192.06
2022-11-13T00:45:59.431Z,102200.06
2022-11-13T00:48:27.621Z,102195.63
2022-11-13T00:50:55.631Z,102199.22
2022-11-13T00:53:23.641Z,102191.03
2022-11-13T00:55:51.503Z,102183.72
2022-11-13T00:58:19.384Z,102175.53
2022-11-13T01:00:48.971Z,102180.13
2022-11-13T01:03:16.866Z,102182.03
2022-11-13T01:05:45.740Z,102181.16
2022-11-13T01:08:16.806Z,102177.59
2022-11-13T01:10:51.877Z,102182.19
2022-11-13T01:13:21.463Z,102184.94
2022-11-13T01:15:50.678Z,102178.44
2022-11-13T01:18:18.531Z,102184.06
2022-11-13T01:20:46.371Z,102183.91
2022-11-13T01:23:14.312Z,102181.34
2022-11-13T01:25:42.471Z,102184.06
2022-11-13T01:28:10.886Z,102182.19
2022-11-13T01:30:39.858Z,102184.06
2022-11-13T01:33:09.177Z,102183.03
2022-11-13T01:35:37.069Z,102180.31
2022-11-13T01:38:05.060Z,102171.31
2022-11-13T01:40:32.952Z,102176.75
2022-11-13T01:43:00.844Z,102167.75
2022-11-13T01:46:07.508Z,102169.44
2022-11-13T01:48:38.617Z,102166.88
2022-11-13T01:51:08.317Z,102157.91
2022-11-13T01:53:36.181Z,102148.22
2022-11-13T01:56:04.534Z,102147.81
2022-11-13T01:58:32.411Z,102152.25
2022-11-13T02:01:00.334Z,102136.13
2022-11-13T02:03:28.230Z,102132.31
2022-11-13T02:05:57.728Z,102135.06
2022-11-13T02:08:26.117Z,102079.47
2022-11-13T02:10:54.223Z,102128.75
2022-11-13T02:13:22.307Z,102118.09
2022-11-13T02:15:50.262Z,102126.25
2022-11-13T02:18:18.147Z,102117.88
2022-11-13T02:20:48.390Z,102129.81
2022-11-13T02:23:20.056Z,102120.59
2022-11-13T02:25:49.784Z,102114.03
2022-11-13T02:28:17.676Z,102114.31
2022-11-13T02:30:45.573Z,102123.31
2022-11-13T02:33:24.931Z,102125.22
2022-11-13T02:35:53.064Z,102118.94
2022-11-13T02:38:20.952Z,102119.78
2022-11-13T02:40:50.237Z,102119.13
2022-11-13T02:43:18.105Z,102122.69
2022-11-13T02:45:45.962Z,102117.22
2022-11-13T02:48:13.846Z,102112.41
2022-11-13T02:50:41.706Z,102119.78
2022-11-13T02:53:09.590Z,102108.03
2022-11-13T02:55:37.807Z,102107.19
2022-11-13T02:58:07.040Z,102105.31
2022-11-13T03:00:34.956Z,102102.59
2022-11-13T03:03:02.848Z,102101.75
2022-11-13T03:05:30.724Z,102094.41
2022-11-13T03:07:58.587Z,102097.97
2022-11-13T03:10:26.754Z,102103.44
2022-11-13T03:12:54.612Z,102092.72
2022-11-13T03:15:24.172Z,102101.75
2022-11-13T03:17:52.097Z,102094.41
2022-11-13T03:20:20.130Z,102069.75
2022-11-13T03:22:47.989Z,102098.16
2022-11-13T03:25:16.319Z,102092.72
2022-11-13T03:27:44.241Z,102090.84
2022-11-13T03:30:13.217Z,102090.84
2022-11-13T03:32:42.497Z,102090.84
2022-11-13T03:35:10.699Z,102091.03
2022-11-13T03:37:38.552Z,102093.56
2022-11-13T03:40:07.628Z,102092.72
2022-11-13T03:42:36.202Z,102093.75
2022-11-13T03:45:04.666Z,102088.31
2022-11-13T03:47:32.593Z,102082.69
2022-11-13T03:50:01.833Z,102085.41
2022-11-13T03:52:29.696Z,102079.09
2022-11-13T03:54:57.840Z,102080.81
2022-11-13T03:57:25.695Z,102073.84
2022-11-13T03:59:53.541Z,102074.69
2022-11-13T04:02:21.474Z,102071.97
2022-11-13T04:04:49.640Z,102071.97
2022-11-13T04:07:18.912Z,102071.13
2022-11-13T04:09:47.186Z,102065.69
2022-11-13T04:12:15.033Z,102066.53
2022-11-13T04:14:43.201Z,102069.25
2022-11-13T04:17:11.074Z,102058.53
2022-11-13T04:19:38.902Z,102057.69
2022-11-13T04:22:06.773Z,102058.53
2022-11-13T04:24:36.050Z,102064.81
2022-11-13T04:27:03.946Z,102051.22
2022-11-13T04:29:31.854Z,102053.09
2022-11-13T04:31:59.794Z,102050.38
2022-11-13T04:34:27.656Z,102059.19
2022-11-13T04:36:55.550Z,102051.03
2022-11-13T04:39:23.471Z,102047.47
2022-11-13T04:42:10.006Z,102042.84
2022-11-13T04:44:37.909Z,102036.56
2022-11-13T04:47:05.795Z,102035.72
2022-11-13T04:49:33.884Z,102037.59
2022-11-13T04:52:01.776Z,102031.97
2022-11-13T04:54:29.646Z,102026.69
2022-11-13T04:56:59.197Z,102029.25
2022-11-13T04:59:27.102Z,102024.63
2022-11-13T05:01:55.780Z,102027.56
2022-11-13T05:04:23.706Z,102023.78
2022-11-13T05:06:51.891Z,102026.50
2022-11-13T05:09:19.917Z,102028.38
2022-11-13T05:11:47.801Z,102021.91
2022-11-13T05:14:17.221Z,102028.22
2022-11-13T05:16:45.346Z,102017.91
2022-11-13T05:19:13.219Z,102021.91
2022-11-13T05:21:41.203Z,102026.31
2022-11-13T05:24:11.098Z,102019.19
2022-11-13T05:26:39.245Z,102016.28
2022-11-13T05:29:07.128Z,102012.72
2022-11-13T05:31:36.423Z,102018.16
2022-11-13T05:34:06.171Z,102013.75
2022-11-13T05:36:34.586Z,102016.47
2022-11-13T05:39:02.484Z,102017.31
2022-11-13T05:41:30.340Z,102013.75
2022-11-13T05:43:59.769Z,102011.88
2022-11-13T05:46:29.073Z,101998.03
2022-11-13T05:48:58.973Z,101999.94
2022-11-13T05:51:27.625Z,102004.31
2022-11-13T05:53:55.592Z,101999.94
2022-11-13T05:56:24.548Z,101999.94
2022-11-13T05:58:52.805Z,101998.03
2022-11-13T06:01:22.875Z,101994.50
2022-11-13T06:03:51.141Z,101988.19
2022-11-13T06:06:21.910Z,101976.25
2022-11-13T06:08:49.905Z,101980.66
2022-11-13T06:11:20.958Z,101974.38
2022-11-13T06:13:48.914Z,101972.72
2022-11-13T06:16:17.805Z,101963.88
2022-11-13T06:18:45.899Z,101957.19
2022-11-13T06:21:15.070Z,101954.44
2022-11-13T06:23:44.425Z,101955.31
2022-11-13T06:26:13.332Z,101945.47
2022-11-13T06:28:41.227Z,101950.91
2022-11-13T06:31:10.435Z,101943.56
2022-11-13T06:33:38.553Z,101933.72
2022-11-13T06:36:07.978Z,101940.84
2022-11-13T06:38:37.409Z,101935.38
2022-11-13T06:41:06.965Z,101927.22
2022-11-13T06:43:34.834Z,101928.28
2022-11-13T06:46:04.635Z,101934.56
2022-11-13T06:48:32.535Z,101937.31
2022-11-13T06:51:02.093Z,101938.13
2022-11-13T06:53:30.008Z,101935.38
2022-11-13T06:55:59.191Z,101930.78
2022-11-13T06:58:28.783Z,101938.97
2022-11-13T07:00:56.889Z,101940.84
2022-11-13T07:03:26.911Z,101931.84
2022-11-13T07:05:55.069Z,101934.56
2022-11-13T07:08:22.920Z,101938.13
2022-11-13T07:10:54.040Z,101939.81
2022-11-13T07:13:21.868Z,101937.06
2022-11-13T07:15:51.116Z,101935.38
2022-11-13T07:18:23.755Z,101938.13
2022-11-13T07:20:51.929Z,101935.19
2022-11-13T07:23:19.850Z,101938.97
2022-11-13T07:25:48.006Z,101938.97
2022-11-13T07:28:15.902Z,101929.13
2022-11-13T07:30:43.838Z,101935.19
2022-11-13T07:33:13.151Z,101934.34
2022-11-13T07:35:41.351Z,101926.19
2022-11-13T07:38:09.234Z,101927.22
2022-11-13T07:40:37.092Z,101931.63
2022-11-13T07:43:04.996Z,101925.34
2022-11-13T07:45:33.176Z,101924.50
2022-11-13T07:48:01.095Z,101925.34
2022-11-13T07:50:31.026Z,101919.88
2022-11-13T07:52:59.165Z,101927.03
2022-11-13T07:55:27.432Z,101923.47
2022-11-13T07:57:56.950Z,101911.72
2022-11-13T08:00:25.102Z,101914.44
2022-11-13T08:02:52.967Z,101907.97
2022-11-13T08:05:21.128Z,101898.94
2022-11-13T08:07:51.513Z,101903.56
2022-11-13T08:10:20.012Z,101898.31
2022-11-13T08:12:48.007Z,101908.81
2022-11-13T08:15:16.329Z,101897.91
2022-11-13T08:17:44.199Z,101901.66
2022-11-13T08:20:13.011Z,101898.94
2022-11-13T08:22:40.919Z,101897.91
2022-11-13T08:25:10.725Z,101896.88
2022-11-13T08:27:38.601Z,101892.03
2022-11-13T08:30:09.959Z,101888.91
2022-11-13T08:32:37.851Z,101893.31
2022-11-13T08:35:06.325Z,101894.34
2022-11-13T08:37:34.221Z,101896.03
2022-11-13T08:40:02.114Z,101891.44
2022-11-13T08:42:31.393Z,101891.44
2022-11-13T08:44:59.598Z,101888.72
2022-11-13T08:47:29.684Z,101886.81
2022-11-13T08:49:57.691Z,101879.50
2022-11-13T08:52:25.541Z,101866.28
2022-11-13T08:54:54.582Z,101872.38
2022-11-13T08:57:22.485Z,101871.34
2022-11-13T08:59:51.983Z,101868.16
2022-11-13T09:02:20.105Z,101864.19
2022-11-13T09:04:48.212Z,101856.88
2022-11-13T09:07:16.339Z,101849.09
2022-11-13T09:09:44.366Z,101848.69
2022-11-13T09:12:12.221Z,101845.97
2022-11-13T09:14:40.427Z,101850.38
2022-11-13T09:17:09.666Z,101849.53
2022-11-13T09:19:37.663Z,101846.81
2022-11-13T09:22:05.606Z,101844.94
2022-11-13T09:24:33.717Z,101842.22
2022-11-13T09:27:01.768Z,101841.38
2022-11-13T09:29:29.956Z,101837.81
2022-11-13T09:31:57.890Z,101830.66
2022-11-13T09:34:28.496Z,101840.31
2022-11-13T09:36:56.431Z,101835.09
2022-11-13T09:39:24.415Z,101832.56
2022-11-13T09:41:59.682Z,101834.03
2022-11-13T09:44:31.541Z,101835.94
2022-11-13T09:47:03.294Z,101835.09
2022-11-13T09:49:33.716Z,101829.19
2022-11-13T09:52:06.656Z,101832.13
2022-11-13T09:54:34.825Z,101828.59
2022-11-13T09:57:06.090Z,101824.81
2022-11-13T09:59:36.406Z,101822.94
2022-11-13T10:02:09.482Z,101824.81
2022-11-13T10:04:47.541Z,101820.81
2022-11-13T10:07:23.499Z,101757.53
2022-11-13T10:09:58.817Z,101825.25
2022-11-13T10:12:27.558Z,101817.94
2022-11-13T10:14:55.857Z,101821.69
2022-11-13T10:17:25.818Z,101733.84
2022-11-13T10:19:58.029Z,101815.41
2022-11-13T10:22:34.157Z,101811.84
2022-11-13T10:25:11.761Z,101819.34
2022-11-13T10:27:39.949Z,101809.13
2022-11-13T10:30:15.596Z,101806.41
2022-11-13T10:32:44.797Z,101809.13
2022-11-13T10:35:33.675Z,101806.41
2022-11-13T10:38:07.747Z,101802.63
2022-11-13T10:40:37.739Z,101796.53
2022-11-13T10:43:06.743Z,101788.38
2022-11-13T10:45:34.893Z,101786.47
2022-11-13T10:48:04.653Z,101778.31
2022-11-13T10:50:35.630Z,101771.19
2022-11-13T10:53:03.552Z,101770.34
2022-11-13T10:55:39.193Z,101765.53
2022-11-13T10:58:13.932Z,101765.72
2022-11-13T11:00:44.427Z,101759.25
2022-11-13T11:03:16.451Z,101755.69
2022-11-13T11:05:54.906Z,101755.50
2022-11-13T11:08:24.015Z,101744.59
2022-11-13T11:11:17.418Z,101743.75
2022-11-13T11:13:45.722Z,101742.91
2022-11-13T11:16:17.682Z,101734.75
2022-11-13T11:18:48.778Z,101730.31
2022-11-13T11:21:20.003Z,101729.09
2022-11-13T11:23:55.575Z,101728.25
2022-11-13T11:26:26.238Z,101726.38
2022-11-13T11:29:00.297Z,101710.66
2022-11-13T11:31:31.933Z,101713.59
2022-11-13T11:34:02.159Z,101708.16
2022-11-13T11:36:32.340Z,101711.72
2022-11-13T11:39:03.754Z,101699.97
2022-11-13T11:41:34.056Z,101699.97
2022-11-13T11:44:04.510Z,101684.47
2022-11-13T11:46:32.371Z,101693.47
2022-11-13T11:49:01.233Z,101686.34
2022-11-13T11:51:33.427Z,101678.19
2022-11-13T11:54:09.725Z,101679.84
2022-11-13T11:56:38.426Z,101669.56
2022-11-13T11:59:34.358Z,101671.66
2022-11-13T12:02:17.214Z,101667.06
2022-11-13T12:04:53.999Z,101660.78
2022-11-13T12:07:30.633Z,101653.03
2022-11-13T12:10:04.290Z,101621.97
2022-11-13T12:12:42.576Z,101651.78
2022-11-13T12:15:11.956Z,101641.72
2022-11-13T12:17:47.464Z,101569.34
2022-11-13T12:20:22.980Z,101633.78
2022-11-13T12:22:57.072Z,101630.00
2022-11-13T12:25:27.067Z,101516.09
2022-11-13T12:27:57.709Z,101621.84
2022-11-13T12:30:28.447Z,101630.81
2022-11-13T12:33:21.050Z,101618.25
2022-11-13T12:35:50.928Z,101604.66
2022-11-13T12:38:27.555Z,101608.22
2022-11-13T12:40:58.178Z,101594.59
2022-11-13T12:43:46.371Z,101592.69
2022-11-13T12:46:14.303Z,101581.56
2022-11-13T12:48:42.788Z,101582.22
2022-11-13T12:51:11.386Z,101592.47
2022-11-13T12:53:48.632Z,101587.88
2022-11-13T12:56:18.891Z,101587.88
2022-11-13T12:59:23.665Z,101583.28
2022-11-13T13:01:46.939Z,101565.25
2022-11-13T13:04:44.365Z,101568.81
2022-11-13T13:07:20.709Z,101559.81
2022-11-13T13:09:56.052Z,101557.91
2022-11-13T13:12:29.505Z,101551.63
2022-11-13T13:15:24.372Z,101545.97
2022-11-13T13:18:03.392Z,101537.81
2022-11-13T13:20:34.313Z,101531.72
2022-11-13T13:23:07.242Z,101530.69
2022-11-13T13:25:38.077Z,101532.56
2022-11-13T13:28:19.530Z,101523.56
2022-11-13T13:30:52.885Z,101516.41
2022-11-13T13:33:22.973Z,101513.09
2022-11-13T13:35:53.223Z,101518.94
2022-11-13T13:38:24.978Z,101508.06
2022-11-13T13:41:02.738Z,101506.16
2022-11-13T13:43:37.866Z,101501.75
2022-11-13T13:46:09.248Z,101506.38
2022-11-13T13:48:39.680Z,101506.16
2022-11-13T13:51:17.671Z,101500.72
2022-11-13T13:53:45.570Z,101504.50
2022-11-13T13:56:15.195Z,101508.91
2022-11-13T13:58:43.076Z,101506.16
2022-11-13T14:01:19.310Z,101506.16
2022-11-13T14:03:48.032Z,101508.91
2022-11-13T14:06:21.089Z,101514.34
2022-11-13T14:08:49.440Z,101502.00
2022-11-13T14:11:19.878Z,101506.16
2022-11-13T14:13:47.755Z,101504.28
2022-11-13T14:16:15.653Z,101505.13
2022-11-13T14:18:43.535Z,101500.53
2022-11-13T14:21:16.084Z,101503.44
2022-11-13T14:23:45.474Z,101490.47
2022-11-13T14:26:13.350Z,101492.34
2022-11-13T14:28:51.009Z,101487.94
2022-11-13T14:31:21.215Z,101480.63
2022-11-13T14:33:50.207Z,101470.75
2022-11-13T14:36:27.228Z,101462.78
2022-11-13T14:38:55.150Z,101461.56
2022-11-13T14:41:25.777Z,101460.72
2022-11-13T14:43:55.402Z,101451.69
2022-11-13T14:46:30.996Z,101451.50
2022-11-13T14:48:58.880Z,101439.75
2022-11-13T14:51:27.962Z,101436.41
2022-11-13T14:53:59.905Z,101438.91
2022-11-13T14:56:35.036Z,101439.75
2022-11-13T14:59:15.555Z,101438.91
2022-11-13T15:01:55.034Z,101439.97
2022-11-13T15:04:22.967Z,101433.66
2022-11-13T15:06:55.452Z,101427.19
2022-11-13T15:09:24.250Z,101430.94
2022-11-13T15:11:52.178Z,101425.75
2022-11-13T15:14:21.984Z,101420.06
2022-11-13T15:16:50.955Z,101420.91
2022-11-13T15:19:20.140Z,101418.16
2022-11-13T15:22:20.348Z,101409.16
2022-11-13T15:24:36.016Z,101410.00
2022-11-13T15:27:05.800Z,101414.59
2022-11-13T15:29:35.104Z,101407.28
2022-11-13T15:32:03.069Z,101410.22
2022-11-13T15:34:30.939Z,101406.44
2022-11-13T15:36:58.769Z,101412.72
2022-11-13T15:39:26.662Z,101410.22
2022-11-13T15:41:54.480Z,101410.84
2022-11-13T15:44:22.390Z,101404.56
2022-11-13T15:46:51.663Z,101406.44
2022-11-13T15:49:19.567Z,101408.31
2022-11-13T15:51:47.484Z,101410.84
2022-11-13T15:54:19.650Z,101405.59
2022-11-13T15:56:47.951Z,101404.75
2022-11-13T15:59:15.850Z,101407.47
2022-11-13T16:01:43.888Z,101395.13
2022-11-13T16:04:14.853Z,101403.72
2022-11-13T16:06:42.770Z,101400.16
2022-11-13T16:09:14.037Z,101396.81
2022-11-13T16:11:42.048Z,101401.00
2022-11-13T16:14:09.928Z,101401.84
2022-11-13T16:16:38.866Z,101383.63
2022-11-13T16:19:11.305Z,101378.59
2022-11-13T16:21:40.843Z,101387.38
2022-11-13T16:24:10.577Z,101387.38
2022-11-13T16:26:38.429Z,101390.09
2022-11-13T16:29:14.062Z,101370.88
2022-11-13T16:31:42.394Z,101385.69
2022-11-13T16:34:10.254Z,101384.88
2022-11-13T16:36:38.471Z,101389.25
2022-11-13T16:39:07.899Z,101389.25
2022-11-13T16:41:35.934Z,101385.69
2022-11-13T16:44:03.839Z,101379.44
2022-11-13T16:46:33.232Z,101386.53
2022-11-13T16:49:01.108Z,101374.00
2022-11-13T16:51:29.041Z,101382.97
2022-11-13T16:53:56.922Z,101371.25
2022-11-13T16:56:28.902Z,101371.25
2022-11-13T16:58:56.786Z,101365.81
2022-11-13T17:01:24.896Z,101366.03
2022-11-13T17:03:52.919Z,101357.66
2022-11-13T17:06:22.138Z,101356.81
2022-11-13T17:08:51.444Z,101353.25
2022-11-13T17:11:19.460Z,101345.91
2022-11-13T17:13:51.593Z,101346.97
2022-11-13T17:16:21.081Z,101337.75
2022-11-13T17:18:50.833Z,101342.34
2022-11-13T17:21:18.679Z,101331.47
2022-11-13T17:23:46.622Z,101336.91
2022-11-13T17:26:14.834Z,101337.75
2022-11-13T17:28:42.726Z,101336.91
2022-11-13T17:31:13.635Z,101334.19
2022-11-13T17:33:42.707Z,101330.63
2022-11-13T17:36:11.087Z,101336.06
2022-11-13T17:38:39.121Z,101336.91
2022-11-13T17:41:07.896Z,101333.34
2022-11-13T17:43:36.504Z,101328.75
2022-11-13T17:46:04.522Z,101317.84
2022-11-13T17:48:34.279Z,101325.19
2022-11-13T17:51:03.113Z,101320.56
2022-11-13T17:53:31.799Z,101327.91
2022-11-13T17:56:00.703Z,101325.19
2022-11-13T17:58:28.762Z,101325.19
2022-11-13T18:01:04.180Z,101326.00
2022-11-13T18:03:32.144Z,101330.41
2022-11-13T18:06:04.715Z,101323.28
2022-11-13T18:08:33.139Z,101317.00
2022-11-13T18:11:00.986Z,101321.41
2022-11-13T18:13:29.115Z,101316.16
2022-11-13T18:15:57.573Z,101319.72
2022-11-13T18:18:25.477Z,101314.28
2022-11-13T18:20:53.350Z,101311.16
2022-11-13T18:23:22.590Z,101310.72
2022-11-13T18:25:50.754Z,101311.75
2022-11-13T18:28:18.671Z,101318.06
2022-11-13T18:30:46.541Z,101310.31
2022-11-13T18:33:14.423Z,101310.31
2022-11-13T18:35:43.176Z,101321.81
2022-11-13T18:38:11.025Z,101318.88
2022-11-13T18:40:41.742Z,101323.50
2022-11-13T18:43:09.674Z,101319.94
2022-11-13T18:45:37.776Z,101322.44
2022-11-13T18:48:05.867Z,101323.28
2022-11-13T18:50:33.874Z,101319.53
2022-11-13T18:53:01.743Z,101312.78
2022-11-13T18:55:29.627Z,101306.31
2022-11-13T18:57:58.993Z,101308.41
2022-11-13T19:00:26.967Z,101305.66
2022-11-13T19:02:55.123Z,101301.25
2022-11-13T19:05:23.309Z,101291.44
2022-11-13T19:07:51.199Z,101300.47
2022-11-13T19:10:19.236Z,101296.06
2022-11-13T19:12:47.161Z,101289.78
2022-11-13T19:15:16.960Z,101280.75
2022-11-13T19:17:47.064Z,101285.38
2022-11-13T19:20:18.590Z,101283.50
2022-11-13T19:22:46.432Z,101290.59
2022-11-13T19:25:14.332Z,101280.75
2022-11-13T19:27:42.237Z,101280.75
2022-11-13T19:30:11.134Z,101279.94
2022-11-13T19:32:40.434Z,101282.66
2022-11-13T19:35:09.211Z,101274.47
2022-11-13T19:37:37.354Z,101282.44
2022-11-13T19:40:06.057Z,101273.44
2022-11-13T19:42:39.287Z,101266.31
2022-11-13T19:45:13.319Z,101273.63
2022-11-13T19:47:43.735Z,101273.44
2022-11-13T19:50:12.486Z,101278.03
2022-11-13T19:52:41.265Z,101272.59
2022-11-13T19:55:11.229Z,101269.88
2022-11-13T19:57:45.029Z,101263.59
2022-11-13T20:00:14.993Z,101267.16
2022-11-13T20:02:44.320Z,101248.28
2022-11-13T20:05:13.156Z,101257.09
2022-11-13T20:07:41.379Z,101251.84
2022-11-13T20:10:10.576Z,101250.81
2022-11-13T20:12:38.482Z,101246.41
2022-11-13T20:15:09.389Z,101248.91
2022-11-13T20:17:37.329Z,101245.38
2022-11-13T20:20:07.823Z,101248.91
2022-11-13T20:22:36.195Z,101247.03
2022-11-13T20:25:04.557Z,101243.69
2022-11-13T20:27:34.622Z,101244.53
2022-11-13T20:30:06.757Z,101244.53
2022-11-13T20:32:37.686Z,101247.25
2022-11-13T20:35:08.079Z,101242.63
2022-11-13T20:37:35.966Z,101239.91
2022-11-13T20:40:03.843Z,101237.19
2022-11-13T20:42:31.849Z,101233.63
2022-11-13T20:45:01.326Z,101231.75
2022-11-13T20:47:29.487Z,101225.47
2022-11-13T20:49:57.464Z,101240.75
2022-11-13T20:52:26.736Z,101227.97
2022-11-13T20:54:54.894Z,101229.03
2022-11-13T20:57:22.811Z,101231.75
2022-11-13T20:59:50.688Z,101225.47
2022-11-13T21:02:18.563Z,101225.47
2022-11-13T21:04:46.805Z,101217.28
2022-11-13T21:07:14.684Z,101223.56
2022-11-13T21:09:48.726Z,101222.72
2022-11-13T21:12:17.822Z,101214.56
2022-11-13T21:14:45.971Z,101211.00
2022-11-13T21:17:13.845Z,101214.56
2022-11-13T21:19:41.765Z,101214.56
2022-11-13T21:22:09.663Z,101203.88
2022-11-13T21:24:37.940Z,101203.88
2022-11-13T21:27:07.227Z,101210.16
2022-11-13T21:29:35.117Z,101206.59
2022-11-13T21:32:02.988Z,101205.75
2022-11-13T21:34:30.854Z,101207.44
2022-11-13T21:36:58.728Z,101196.56
2022-11-13T21:39:26.602Z,101186.69
2022-11-13T21:41:54.615Z,101189.22
2022-11-13T21:44:23.873Z,101194.88
2022-11-13T21:46:52.061Z,101181.25
2022-11-13T21:49:20.325Z,101178.53
2022-11-13T21:51:48.157Z,101180.44
2022-11-13T21:54:16.044Z,101176.66
2022-11-13T21:56:44.229Z,101170.38
2022-11-13T21:59:12.147Z,101174.16
2022-11-13T22:01:41.418Z,101161.38
2022-11-13T22:04:09.328Z,101172.50
2022-11-13T22:06:37.501Z,101173.53
2022-11-13T22:09:07.086Z,101166.84
2022-11-13T22:11:36.550Z,101164.13
2022-11-13T22:14:04.641Z,101159.47
2022-11-13T22:16:35.697Z,101155.94
2022-11-13T22:19:06.545Z,101147.53
2022-11-13T22:21:34.397Z,101151.31
2022-11-13T22:24:02.279Z,101145.84
2022-11-13T22:26:31.920Z,101141.25
2022-11-13T22:29:01.353Z,101137.69
2022-11-13T22:31:30.630Z,101144.81
2022-11-13T22:33:58.919Z,101139.38
2022-11-13T22:36:29.246Z,101144.81
2022-11-13T22:38:57.128Z,101141.25
2022-11-13T22:41:27.591Z,101133.91
2022-11-13T22:43:56.667Z,101139.38
2022-11-13T22:46:25.738Z,101139.38
2022-11-13T22:48:54.330Z,101129.53
2022-11-13T22:51:22.726Z,101130.34
2022-11-13T22:53:53.426Z,101140.41
2022-11-13T22:56:22.367Z,101127.63
2022-11-13T22:58:50.272Z,101124.91
2022-11-13T23:01:19.363Z,101122.19
2022-11-13T23:03:48.202Z,101119.47
2022-11-13T23:06:18.088Z,101119.47
2022-11-13T23:08:46.720Z,101114.03
2022-11-13T23:11:16.778Z,101105.84
2022-11-13T23:13:45.278Z,101112.38
2022-11-13T23:16:13.594Z,101097.69
2022-11-13T23:18:41.689Z,101098.53
2022-11-13T23:21:10.027Z,101102.53
2022-11-13T23:23:38.049Z,101088.91
2022-11-13T23:26:06.670Z,101090.59
2022-11-13T23:28:36.007Z,101084.31
2022-11-13T23:31:03.956Z,101083.47
2022-11-13T23:33:31.850Z,101079.91
2022-11-13T23:36:00.012Z,101072.56
2022-11-13T23:38:28.341Z,101070.69
2022-11-13T23:40:56.418Z,101075.31
2022-11-13T23:43:36.408Z,101069.00
2022-11-13T23:46:13.649Z,101069.00
2022-11-13T23:48:41.543Z,101069.84
2022-11-13T23:51:09.398Z,101066.28
2022-11-13T23:53:37.345Z,101067.13
2022-11-13T23:56:06.002Z,101058.13
2022-11-13T23:58:34.189Z,101062.72
